Time;durP1;ratioP1;P1;durP2;ratioP2;P2;SDS_P1;SDS_P2;PMS_P1;PMS_P2;Temp;Humidity;BMP_temperature;BMP_pressure;BME280_temperature;BME280_humidity;BME280_pressure;Samples;Min_cycle;Max_cycle;Signal;HPM_P1;HPM_P2
2022/05/21 00:00:20;;;;;;;25.08;18.90;;;;;;;11.22;100.00;163497.38;4975717;28;20474;-60
2022/05/21 00:02:47;;;;;;;21.10;18.17;;;;;;;10.99;100.00;163437.97;4973510;28;20038;-61
2022/05/21 00:05:13;;;;;;;24.42;19.83;;;;;;;11.28;100.00;163513.63;4972236;28;20126;-60
2022/05/21 00:07:38;;;;;;;25.17;19.50;;;;;;;11.25;100.00;163505.50;4973540;28;20060;-60
2022/05/21 00:10:04;;;;;;;24.75;20.38;;;;;;;11.20;100.00;163492.03;4974966;28;20023;-60
2022/05/21 00:12:30;;;;;;;27.55;22.48;;;;;;;11.15;100.00;163478.47;4974061;28;20621;-60
2022/05/21 00:14:56;;;;;;;27.55;19.98;;;;;;;11.17;100.00;163485.22;4973387;28;20022;-60
2022/05/21 00:17:21;;;;;;;24.50;18.67;;;;;;;11.14;100.00;163475.78;4972096;28;20117;-60
2022/05/21 00:19:47;;;;;;;26.80;22.42;;;;;;;10.88;100.00;163408.28;4991751;28;20501;-60
2022/05/21 00:22:12;;;;;;;25.35;20.23;;;;;;;10.77;100.00;163379.94;4973152;28;20067;-60
2022/05/21 00:24:38;;;;;;;30.48;20.75;;;;;;;11.00;100.00;163439.34;4973337;28;20022;-60
2022/05/21 00:27:03;;;;;;;25.38;19.27;;;;;;;10.97;100.00;163432.63;4977659;28;20042;-60
2022/05/21 00:29:29;;;;;;;24.70;22.15;;;;;;;10.97;100.00;163432.63;4973366;28;20030;-60
2022/05/21 00:31:55;;;;;;;27.10;23.10;;;;;;;10.97;100.00;163431.22;4971907;28;20061;-60
2022/05/21 00:34:21;;;;;;;26.23;23.48;;;;;;;10.95;100.00;163427.19;4987929;28;20171;-60
2022/05/21 00:36:46;;;;;;;30.70;24.17;;;;;;;10.86;100.00;163402.88;4990648;28;20046;-60
2022/05/21 00:39:12;;;;;;;33.22;24.20;;;;;;;10.78;100.00;163384.00;4992555;28;20092;-61
2022/05/21 00:41:39;;;;;;;27.23;24.13;;;;;;;10.71;100.00;163365.09;4988594;28;20129;-61
2022/05/21 00:44:05;;;;;;;29.83;26.67;;;;;;;10.67;100.00;163354.31;4991656;28;20092;-61
2022/05/21 00:46:38;;;;;;;30.77;26.33;;;;;;;10.63;100.00;163344.88;4989764;28;20104;-61
2022/05/21 00:49:15;;;;;;;37.00;26.75;;;;;;;10.60;100.00;163336.75;4987567;28;20117;-61
2022/05/21 00:51:59;;;;;;;33.42;27.85;;;;;;;10.57;100.00;163328.66;4989723;28;20049;-61
2022/05/21 00:54:31;;;;;;;31.60;27.02;;;;;;;10.52;100.00;163313.81;4988321;28;20022;-61
2022/05/21 00:57:08;;;;;;;29.88;25.48;;;;;;;10.47;100.00;163301.66;4972797;28;20047;-61
2022/05/21 00:59:50;;;;;;;39.10;29.10;;;;;;;10.44;100.00;163293.53;4972641;28;20038;-61
2022/05/21 01:02:19;;;;;;;36.83;26.00;;;;;;;10.36;100.00;163273.25;4978550;28;20073;-61
2022/05/21 01:04:46;;;;;;;34.58;24.40;;;;;;;10.38;100.00;163278.72;4990948;28;20050;-61
2022/05/21 01:07:14;;;;;;;37.42;25.60;;;;;;;10.31;100.00;163259.78;4971213;28;20129;-60
2022/05/21 01:09:42;;;;;;;29.77;25.23;;;;;;;10.29;100.00;163255.72;4982638;28;20026;-60
2022/05/21 01:12:08;;;;;;;39.08;27.05;;;;;;;10.32;100.00;163262.44;4990490;28;20038;-60
2022/05/21 01:14:35;;;;;;;33.03;25.48;;;;;;;10.34;100.00;163267.84;4991718;28;20058;-60
2022/05/21 01:17:01;;;;;;;30.15;24.33;;;;;;;10.26;100.00;163246.25;4988536;28;20878;-60
2022/05/21 01:19:27;;;;;;;31.48;25.08;;;;;;;10.36;100.00;163273.25;4974418;28;20150;-60
2022/05/21 01:21:53;;;;;;;28.02;22.40;;;;;;;10.40;100.00;163282.78;4980552;28;20042;-60
2022/05/21 01:24:18;;;;;;;34.63;25.63;;;;;;;10.41;100.00;163285.47;4990286;28;20026;-60
2022/05/21 01:26:44;;;;;;;29.63;23.73;;;;;;;10.36;100.00;163271.91;4990058;28;20050;-61
2022/05/21 01:29:25;;;;;;;29.95;24.23;;;;;;;10.35;100.00;163270.56;4986645;28;20057;-61
2022/05/21 01:31:53;;;;;;;31.60;23.73;;;;;;;10.37;100.00;163276.03;4970230;28;20522;-60
2022/05/21 01:34:19;;;;;;;28.08;23.00;;;;;;;10.40;100.00;163284.09;4990639;28;20018;-57
2022/05/21 01:36:46;;;;;;;46.30;27.98;;;;;;;10.37;100.00;163276.03;4988332;28;20046;-63
2022/05/21 01:39:11;;;;;;;34.97;26.20;;;;;;;10.38;100.00;163278.72;4984203;28;20027;-62
2022/05/21 01:41:40;;;;;;;30.73;23.60;;;;;;;10.45;100.00;163296.25;4971300;28;20043;-62
2022/05/21 01:46:50;;;;;;;31.42;23.77;;;;;;;10.53;100.00;163316.53;4986931;28;20439;-62
2022/05/21 01:49:15;;;;;;;28.60;23.88;;;;;;;10.52;100.00;163315.13;4989720;28;20022;-62
2022/05/21 01:51:40;;;;;;;30.50;24.30;;;;;;;10.53;100.00;163317.84;4989778;28;20042;-62
2022/05/21 01:54:06;;;;;;;32.33;24.42;;;;;;;10.57;100.00;163327.28;4991194;28;20489;-61
2022/05/21 01:56:31;;;;;;;29.95;26.75;;;;;;;10.60;100.00;163335.41;4989685;28;20046;-62
2022/05/21 01:58:56;;;;;;;29.25;26.10;;;;;;;10.59;100.00;163334.03;4985789;28;20029;-62
2022/05/21 02:01:22;;;;;;;35.13;26.40;;;;;;;10.67;100.00;163354.31;4971913;28;20046;-62
2022/05/21 02:03:47;;;;;;;27.73;24.50;;;;;;;10.67;100.00;163352.94;4984679;28;20049;-62
2022/05/21 02:06:12;;;;;;;29.58;26.23;;;;;;;10.66;100.00;163351.59;4989786;28;20454;-62
2022/05/21 02:08:38;;;;;;;30.17;25.70;;;;;;;10.71;100.00;163365.09;4990397;28;20030;-62
2022/05/21 02:11:04;;;;;;;38.70;25.52;;;;;;;10.76;100.00;163378.56;5004668;28;20045;-62
2022/05/21 02:13:31;;;;;;;36.35;27.13;;;;;;;10.81;100.00;163389.41;4989130;28;20092;-62
2022/05/21 02:15:57;;;;;;;28.50;25.02;;;;;;;10.82;100.00;163392.09;4984925;28;20074;-62
2022/05/21 02:18:23;;;;;;;28.70;24.58;;;;;;;10.78;100.00;163382.66;4991010;28;20050;-62
2022/05/21 02:20:49;;;;;;;29.80;25.65;;;;;;;10.82;100.00;163392.09;4989409;28;20555;-63
2022/05/21 02:23:16;;;;;;;28.17;25.23;;;;;;;10.83;100.00;163394.81;4977875;28;20113;-63
2022/05/21 02:25:42;;;;;;;29.88;25.25;;;;;;;10.85;100.00;163400.19;4975981;28;20045;-63
2022/05/21 02:28:07;;;;;;;28.00;25.05;;;;;;;10.87;100.00;163405.59;4971746;28;20030;-63
2022/05/21 02:30:33;;;;;;;31.65;25.05;;;;;;;10.89;100.00;163411.00;4968738;28;20031;-62
2022/05/21 02:32:58;;;;;;;37.08;27.27;;;;;;;10.91;100.00;163417.75;4987760;28;20097;-63
2022/05/21 02:35:24;;;;;;;33.05;24.40;;;;;;;10.93;100.00;163421.78;4989361;28;20038;-62
2022/05/21 02:40:33;;;;;;;28.35;23.40;;;;;;;10.98;100.00;163435.31;4969551;28;20045;-63
2022/05/21 02:42:59;;;;;;;32.25;25.45;;;;;;;10.97;100.00;163431.22;4971449;28;20035;-63
2022/05/21 02:45:26;;;;;;;32.05;28.05;;;;;;;10.98;100.00;163435.31;4969859;28;20050;-63
2022/05/21 02:47:53;;;;;;;35.90;25.27;;;;;;;10.99;100.00;163436.66;4970928;28;20019;-63
2022/05/21 02:50:22;;;;;;;29.45;25.25;;;;;;;10.86;100.00;163402.88;4970286;28;20026;-63
2022/05/21 02:52:47;;;;;;;34.00;27.67;;;;;;;11.01;100.00;163442.06;4990234;28;20025;-63
2022/05/21 02:55:13;;;;;;;28.52;25.50;;;;;;;11.03;100.00;163448.81;4973493;28;20393;-63
2022/05/21 02:57:40;;;;;;;33.75;27.33;;;;;;;11.02;100.00;163446.09;4971117;28;20082;-63
2022/05/21 03:00:13;;;;;;;31.80;25.17;;;;;;;10.86;100.00;163402.88;4971393;28;20037;-63
2022/05/21 03:02:39;;;;;;;36.17;28.48;;;;;;;11.01;100.00;163442.06;4983747;28;20473;-62
2022/05/21 03:05:06;;;;;;;33.25;30.05;;;;;;;11.01;100.00;163443.38;4990237;28;20046;-62
2022/05/21 03:07:36;;;;;;;34.78;26.10;;;;;;;11.03;100.00;163448.81;4981716;28;20141;-63
2022/05/21 03:12:45;;;;;;;29.65;26.10;;;;;;;11.08;100.00;163462.28;4969713;28;20045;-63
2022/05/21 03:15:11;;;;;;;33.03;22.70;;;;;;;11.02;100.00;163444.78;4975328;28;20458;-63
2022/05/21 03:17:36;;;;;;;35.17;25.05;;;;;;;11.09;100.00;163465.00;4969422;28;20050;-63
2022/05/21 03:20:03;;;;;;;34.55;25.08;;;;;;;11.10;100.00;163467.72;4988024;28;20030;-63
2022/05/21 03:22:29;;;;;;;33.17;25.63;;;;;;;11.16;100.00;163482.56;4978110;28;20042;-60
2022/05/21 03:24:54;;;;;;;37.42;26.10;;;;;;;11.20;100.00;163492.03;4982553;28;20033;-60
2022/05/21 03:27:20;;;;;;;30.05;24.25;;;;;;;11.19;100.00;163490.63;4992571;28;20486;-60
2022/05/21 03:29:45;;;;;;;28.58;24.63;;;;;;;11.20;100.00;163492.03;4982921;28;20110;-60
2022/05/21 03:32:11;;;;;;;34.33;25.95;;;;;;;11.22;100.00;163497.38;4972813;28;20038;-60
2022/05/21 03:34:36;;;;;;;33.42;25.35;;;;;;;11.19;100.00;163490.63;4974002;28;20038;-60
2022/05/21 03:37:03;;;;;;;29.67;25.45;;;;;;;11.23;100.00;163500.09;4985702;28;20145;-60
2022/05/21 03:39:28;;;;;;;32.78;26.50;;;;;;;11.11;100.00;163470.41;4988503;28;20035;-62
2022/05/21 03:41:54;;;;;;;29.23;23.02;;;;;;;11.25;100.00;163505.50;4972482;28;20062;-62
2022/05/21 03:44:20;;;;;;;38.90;26.85;;;;;;;11.25;100.00;163505.50;4974224;28;20034;-62
2022/05/21 03:46:45;;;;;;;37.03;24.45;;;;;;;11.26;100.00;163508.22;4980495;28;20038;-62
2022/05/21 03:49:10;;;;;;;39.95;25.52;;;;;;;11.24;100.00;163502.81;4993766;28;20371;-62
2022/05/21 03:51:37;;;;;;;39.83;24.98;;;;;;;11.24;100.00;163502.81;4991394;28;20089;-63
2022/05/21 03:54:03;;;;;;;30.88;25.75;;;;;;;11.28;100.00;163513.63;4976241;28;20031;-63
2022/05/21 03:56:28;;;;;;;29.67;22.02;;;;;;;11.30;100.00;163519.00;4972410;28;20553;-63
2022/05/21 03:58:54;;;;;;;36.22;24.88;;;;;;;11.30;100.00;163517.66;4973841;28;20027;-62
2022/05/21 04:01:19;;;;;;;33.88;26.90;;;;;;;11.33;100.00;163527.13;4972221;28;20532;-63
2022/05/21 04:03:45;;;;;;;40.03;26.60;;;;;;;11.30;100.00;163519.00;4973314;28;20041;-62
2022/05/21 04:06:11;;;;;;;42.03;26.23;;;;;;;11.31;100.00;163521.72;4972458;28;20043;-66
2022/05/21 04:08:37;;;;;;;29.25;26.20;;;;;;;11.27;100.00;163512.25;4990453;28;20053;-58
2022/05/21 04:11:02;;;;;;;36.58;25.42;;;;;;;11.27;100.00;163510.94;4991769;28;20125;-57
2022/05/21 04:13:28;;;;;;;31.83;25.00;;;;;;;11.34;100.00;163528.44;4985442;28;20053;-58
2022/05/21 04:15:53;;;;;;;37.85;26.60;;;;;;;11.34;100.00;163528.44;4976631;28;20050;-58
2022/05/21 04:18:19;;;;;;;31.65;24.00;;;;;;;11.25;100.00;163506.84;4986405;28;20033;-58
2022/05/21 04:20:45;;;;;;;31.10;24.30;;;;;;;11.40;100.00;163546.03;4983348;28;20070;-58
2022/05/21 04:23:10;;;;;;;32.83;25.20;;;;;;;11.49;100.00;163567.63;4988490;28;20019;-58
2022/05/21 04:25:36;;;;;;;38.22;26.98;;;;;;;11.52;100.00;163575.72;4980290;28;20042;-58
2022/05/21 04:28:02;;;;;;;33.80;26.08;;;;;;;11.54;100.00;163581.13;4992501;28;20454;-58
2022/05/21 04:30:29;;;;;;;32.78;22.50;;;;;;;11.61;100.00;163600.03;4990523;28;20046;-58
2022/05/21 04:32:58;;;;;;;35.40;24.00;;;;;;;11.64;100.00;163608.16;4989253;28;20061;-58
2022/05/21 04:35:25;;;;;;;32.53;22.13;;;;;;;11.66;100.00;163612.19;4986559;28;20027;-58
2022/05/21 04:37:51;;;;;;;39.63;23.27;;;;;;;11.68;100.00;163618.94;4989927;28;20050;-58
2022/05/21 04:40:22;;;;;;;30.40;21.55;;;;;;;11.77;100.00;163641.88;4986990;28;20041;-58
2022/05/21 04:42:48;;;;;;;30.02;21.15;;;;;;;11.80;100.00;163648.69;4989908;28;20045;-58
2022/05/21 04:45:15;;;;;;;40.45;22.75;;;;;;;11.82;100.00;163655.44;4989066;28;20085;-58
2022/05/21 04:47:41;;;;;;;35.40;23.52;;;;;;;11.83;100.00;163656.75;4980137;28;20109;-58
2022/05/21 04:50:08;;;;;;;34.35;21.40;;;;;;;11.91;100.00;163678.38;4984272;28;20118;-58
2022/05/21 04:52:34;;;;;;;46.38;24.30;;;;;;;11.98;100.00;163697.34;4981779;28;20046;-58
2022/05/21 04:55:05;;;;;;;21.80;18.38;;;;;;;11.99;100.00;163698.72;4983715;28;20030;-58
2022/05/21 04:57:30;;;;;;;41.60;24.27;;;;;;;11.85;100.00;163662.19;4990601;28;20045;-58
2022/05/21 04:59:55;;;;;;;26.30;19.98;;;;;;;12.00;100.00;163702.75;4979105;28;20523;-58
2022/05/21 05:02:21;;;;;;;32.40;21.10;;;;;;;11.99;100.00;163698.72;4977084;28;20058;-58
2022/05/21 05:04:46;;;;;;;41.95;24.08;;;;;;;12.05;100.00;163716.25;4987172;28;20524;-58
2022/05/21 05:07:12;;;;;;;40.67;22.33;;;;;;;12.15;100.00;163741.91;4989434;28;20042;-58
2022/05/21 05:09:40;;;;;;;27.00;20.58;;;;;;;12.18;100.00;163750.03;4990128;28;20026;-58
2022/05/21 05:12:06;;;;;;;28.48;19.42;;;;;;;12.18;100.00;163748.66;4982478;28;20465;-58
2022/05/21 05:14:32;;;;;;;27.35;20.05;;;;;;;12.20;100.00;163754.09;4972746;28;20031;-58
2022/05/21 05:16:57;;;;;;;32.55;19.75;;;;;;;12.31;100.00;163783.84;4981545;28;20046;-58
2022/05/21 05:19:23;;;;;;;33.88;17.63;;;;;;;12.32;100.00;163786.50;4977272;28;20042;-58
2022/05/21 05:21:48;;;;;;;37.90;17.77;;;;;;;12.31;100.00;163783.84;4983696;28;20446;-58
2022/05/21 05:24:13;;;;;;;28.58;17.85;;;;;;;12.38;100.00;163802.75;4982773;28;20409;-58
2022/05/21 05:26:39;;;;;;;30.70;18.08;;;;;;;12.32;100.00;163786.50;4976204;28;20042;-58
2022/05/21 05:29:05;;;;;;;36.72;17.08;;;;;;;12.29;100.00;163778.41;4989270;28;20054;-58
2022/05/21 05:31:31;;;;;;;36.72;19.25;;;;;;;12.33;100.00;163789.22;4970367;28;20046;-58
2022/05/21 05:33:57;;;;;;;27.30;17.38;;;;;;;12.27;100.00;163771.66;4972331;28;20031;-58
2022/05/21 05:36:22;;;;;;;29.90;18.63;;;;;;;12.31;100.00;163782.47;4969794;28;20046;-58
2022/05/21 05:38:48;;;;;;;33.00;16.50;;;;;;;12.34;100.00;163790.59;4970491;28;20022;-58
2022/05/21 05:41:13;;;;;;;31.63;16.13;;;;;;;12.36;100.00;163797.34;4983968;28;20050;-58
2022/05/21 05:43:38;;;;;;;23.20;14.68;;;;;;;12.33;100.00;163787.88;4971399;28;20111;-57
2022/05/21 05:46:04;;;;;;;28.10;15.77;;;;;;;12.43;100.00;163813.53;4977111;28;20045;-58
2022/05/21 05:48:29;;;;;;;29.70;16.05;;;;;;;12.51;100.00;163835.16;4988645;28;20481;-58
2022/05/21 05:50:56;;;;;;;18.88;15.77;;;;;;;12.55;100.00;163845.97;4982846;28;20043;-58
2022/05/21 05:53:22;;;;;;;20.23;14.13;;;;;;;12.56;100.00;163848.66;4984366;28;20018;-58
2022/05/21 05:55:48;;;;;;;25.67;14.20;;;;;;;12.40;100.00;163805.47;4969574;28;20569;-58
2022/05/21 06:01:07;;;;;;;26.45;14.48;;;;;;;12.73;100.00;163891.94;4972024;28;20100;-58
2022/05/21 06:03:34;;;;;;;24.35;13.85;;;;;;;12.80;100.00;163910.84;4990172;28;20037;-58
2022/05/21 06:06:00;;;;;;;20.25;11.40;;;;;;;12.86;100.00;163927.06;4983355;28;20418;-58
2022/05/21 06:08:25;;;;;;;28.15;13.00;;;;;;;12.94;100.00;163948.69;4978976;28;20026;-58
2022/05/21 06:10:51;;;;;;;20.98;12.50;;;;;;;13.02;100.00;163969.00;4971714;28;20410;-58
2022/05/21 06:13:17;;;;;;;19.45;11.90;;;;;;;12.94;100.00;163947.38;4978727;28;20027;-58
2022/05/21 06:15:42;;;;;;;20.05;11.52;;;;;;;13.23;100.00;164024.38;4985253;28;20541;-58
2022/05/21 06:18:14;;;;;;;23.73;10.70;;;;;;;13.31;100.00;164046.03;4988195;28;20050;-58
2022/05/21 06:20:41;;;;;;;22.92;11.68;;;;;;;13.31;100.00;164046.03;4985186;28;20124;-57
2022/05/21 06:23:06;;;;;;;26.50;12.00;;;;;;;13.32;100.00;164048.75;4984646;28;20109;-57
2022/05/21 06:25:35;;;;;;;22.55;12.07;;;;;;;13.38;100.00;164062.25;4982661;28;20129;-58
2022/05/21 06:28:02;;;;;;;25.23;11.93;;;;;;;13.37;100.00;164059.53;4989449;28;20049;-58
2022/05/21 06:30:30;;;;;;;21.30;12.27;;;;;;;13.51;100.00;164096.13;4984702;28;20533;-58
2022/05/21 06:32:56;;;;;;;;;;;;;;;13.54;100.00;164104.25;4982729;28;20030;-58
2022/05/21 06:35:21;;;;;;;23.17;11.00;;;;;;;13.48;100.00;164089.34;4970768;28;19910;-58
2022/05/21 06:37:47;;;;;;;24.77;12.15;;;;;;;13.67;100.00;164138.00;4973468;28;20043;-58
2022/05/21 06:40:14;;;;;;;26.73;10.82;;;;;;;13.75;100.00;164159.66;4978164;28;20030;-58
2022/05/21 06:42:40;;;;;;;21.20;8.70;;;;;;;13.87;100.00;164192.16;4984038;28;20038;-58
2022/05/21 06:45:07;;;;;;;16.10;7.82;;;;;;;13.99;100.00;164221.88;4972830;28;20035;-58
2022/05/21 06:47:32;;;;;;;16.48;8.35;;;;;;;13.71;100.00;164150.19;4977900;28;20042;-58
2022/05/21 06:49:59;;;;;;;19.85;9.07;;;;;;;14.08;100.00;164246.25;4981934;28;20490;-58
2022/05/21 06:52:26;;;;;;;24.55;8.70;;;;;;;14.23;100.00;164285.44;4985362;28;20042;-58
2022/05/21 06:54:53;;;;;;;18.77;8.40;;;;;;;14.10;100.00;164251.66;4980408;28;20552;-58
2022/05/21 06:57:19;;;;;;;17.25;7.32;;;;;;;14.05;100.00;164238.09;4973974;28;20509;-58
2022/05/21 06:59:45;;;;;;;19.70;7.38;;;;;;;14.19;100.00;164275.97;4974177;28;20505;-58
2022/05/21 07:02:10;;;;;;;20.27;6.85;;;;;;;14.15;100.00;164265.19;4973193;28;20039;-58
2022/05/21 07:07:35;;;;;;;19.92;5.85;;;;;;;14.15;100.00;164265.19;4973274;28;20516;-57
2022/05/21 07:10:04;;;;;;;29.85;7.03;;;;;;;14.32;100.00;164309.81;4974539;28;20038;-58
2022/05/21 07:12:31;;;;;;;22.98;7.57;;;;;;;14.22;100.00;164282.78;4986883;28;20521;-58
2022/05/21 07:14:56;;;;;;;22.60;5.95;;;;;;;14.55;100.00;164370.72;4993591;28;20037;-58
2022/05/21 07:17:21;;;;;;;20.30;5.95;;;;;;;14.56;100.00;164373.38;4980854;28;20046;-58
2022/05/21 07:19:47;;;;;;;15.73;5.93;;;;;;;14.73;100.00;164416.75;4973842;28;20031;-59
2022/05/21 07:22:12;;;;;;;16.45;5.68;;;;;;;14.55;100.00;164369.34;4973113;28;20391;-58
2022/05/21 07:24:42;;;;;;;14.73;5.82;;;;;;;14.66;100.00;164397.81;4982086;28;20041;-57
2022/05/21 07:27:07;;;;;;;26.38;5.78;;;;;;;14.79;100.00;164432.97;4991622;28;20054;-56
2022/05/21 07:29:35;;;;;;;19.33;6.32;;;;;;;14.98;100.00;164483.06;4983451;28;20050;-56
2022/05/21 07:32:00;;;;;;;21.02;6.22;;;;;;;14.95;100.00;164474.97;4972603;28;20042;-56
2022/05/21 07:34:27;;;;;;;15.90;6.18;;;;;;;15.07;100.00;164506.09;4986844;28;20053;-57
2022/05/21 07:36:52;;;;;;;17.98;6.43;;;;;;;15.34;100.00;164576.47;4989329;28;20073;-56
2022/05/21 07:39:17;;;;;;;15.38;5.93;;;;;;;15.11;100.00;164515.56;4984054;28;20034;-56
2022/05/21 07:41:43;;;;;;;27.08;7.10;;;;;;;15.19;100.00;164538.56;4991407;28;20038;-57
2022/05/21 07:44:08;;;;;;;18.02;6.10;;;;;;;14.97;100.00;164479.00;4992079;28;20030;-57
2022/05/21 07:46:33;;;;;;;28.08;7.50;;;;;;;15.04;100.00;164499.28;4991483;28;20039;-57
2022/05/21 07:48:59;;;;;;;23.65;9.30;;;;;;;15.09;100.00;164511.47;4992277;28;20520;-57
2022/05/21 07:51:24;;;;;;;22.25;6.38;;;;;;;15.10;100.00;164514.19;4977447;28;20407;-57
2022/05/21 07:53:49;;;;;;;16.33;5.18;;;;;;;14.84;100.00;164446.53;4977398;28;20018;-57
2022/05/21 07:56:15;;;;;;;20.02;5.82;;;;;;;14.66;100.00;164397.81;4991455;28;20042;-57
2022/05/21 07:58:40;;;;;;;12.48;4.15;;;;;;;14.49;100.00;164354.44;4992459;28;20030;-57
2022/05/21 08:01:06;;;;;;;15.13;4.70;;;;;;;14.84;100.00;164446.53;4989399;28;20112;-57
2022/05/21 08:03:31;;;;;;;18.50;5.05;;;;;;;14.85;100.00;164447.88;4973759;28;20030;-57
2022/05/21 08:05:57;;;;;;;18.88;6.93;;;;;;;14.81;100.00;164438.41;4989782;28;20482;-56
2022/05/21 08:08:23;;;;;;;18.30;5.65;;;;;;;14.81;100.00;164438.41;4991173;28;20061;-56
2022/05/21 08:10:50;;;;;;;16.75;4.43;;;;;;;14.79;100.00;164432.97;4973464;28;20046;-57
2022/05/21 08:13:16;;;;;;;10.95;5.35;;;;;;;14.82;100.00;164441.13;4976604;28;20402;-57
2022/05/21 08:15:42;;;;;;;14.48;4.88;;;;;;;14.64;100.00;164393.72;4971691;28;20047;-57
2022/05/21 08:18:08;;;;;;;17.45;6.32;;;;;;;14.73;100.00;164418.13;4992757;28;20030;-57
2022/05/21 08:20:35;;;;;;;13.30;4.65;;;;;;;15.01;100.00;164489.81;4985127;28;20042;-57
2022/05/21 08:28:28;;;;;;;11.90;4.10;;;;;;;15.47;100.00;164611.66;4973093;28;20038;-56
2022/05/21 08:30:53;;;;;;;17.30;6.10;;;;;;;16.14;100.00;164787.72;4987128;28;20061;-57
2022/05/21 08:33:22;;;;;;;13.82;4.55;;;;;;;16.63;100.00;164915.06;4985758;28;20482;-57
2022/05/21 08:35:48;;;;;;;13.48;5.00;;;;;;;16.42;100.00;164860.84;4988324;28;20046;-56
2022/05/21 08:38:15;;;;;;;13.93;4.65;;;;;;;16.39;100.00;164852.75;4992545;28;20028;-56
2022/05/21 08:40:50;;;;;;;18.48;4.65;;;;;;;16.98;100.00;165005.91;4990585;28;20049;-56
2022/05/21 08:43:44;;;;;;;8.65;4.68;;;;;;;16.90;100.00;164985.50;4991223;28;20022;-57
2022/05/21 08:46:40;;;;;;;8.10;3.63;;;;;;;16.38;100.00;164850.03;4986635;28;20062;-57
2022/05/21 08:49:39;;;;;;;9.27;3.70;;;;;;;15.76;100.00;164687.47;4990685;28;20022;-57
2022/05/21 08:52:22;;;;;;;10.55;3.85;;;;;;;15.69;100.00;164669.88;4971205;28;20383;-57
2022/05/21 08:54:50;;;;;;;9.85;3.72;;;;;;;15.96;100.00;164739.00;4973654;28;20030;-57
2022/05/21 08:57:32;;;;;;;11.63;3.08;;;;;;;16.29;100.00;164825.63;4988019;28;20425;-57
2022/05/21 09:00:06;;;;;;;14.77;2.92;;;;;;;16.44;100.00;164866.28;4972075;28;20114;-57
2022/05/21 09:02:34;;;;;;;19.33;6.20;;;;;;;16.91;100.00;164988.22;4971101;28;20043;-57
2022/05/21 09:05:01;;;;;;;11.13;2.97;;;;;;;17.54;100.00;165153.56;4971931;28;20046;-57
2022/05/21 09:07:30;;;;;;;18.13;4.15;;;;;;;17.90;100.00;165248.47;4985368;28;20057;-56
2022/05/21 09:10:07;;;;;;;25.27;4.80;;;;;;;17.75;100.00;165210.53;4991613;28;20044;-57
2022/05/21 09:12:42;;;;;;;14.93;4.25;;;;;;;17.21;100.00;165066.84;4989044;28;20034;-57
2022/05/21 09:16:54;;;;;;;9.85;3.28;;;;;;;17.26;100.00;165080.38;4990086;28;20049;-57
2022/05/21 09:18:02;;;;;;;11.73;3.17;;;;;;;16.43;100.00;164863.56;4990475;28;20181;-57
2022/05/21 09:20:33;;;;;;;12.45;3.83;;;;;;;16.11;100.00;164778.25;4989528;28;20214;-57
2022/05/21 09:25:35;;;;;;;19.75;4.68;;;;;;;16.67;100.00;164925.88;5114727;27;20555;-57
2022/05/21 09:28:05;;;;;;;9.60;2.72;;;;;;;16.64;100.00;164919.13;5066634;28;20480;-57
2022/05/21 09:30:57;;;;;;;12.55;3.97;;;;;;;16.28;100.00;164822.91;5068456;28;20119;-57
2022/05/21 09:33:43;;;;;;;13.95;3.60;;;;;;;16.33;100.00;164836.50;5084089;28;20508;-57
2022/05/21 09:36:14;;;;;;;11.55;3.53;;;;;;;16.30;100.00;164828.34;5085485;28;20093;-57
2022/05/21 09:38:54;;;;;;;10.68;3.03;;;;;;;16.77;100.00;164951.59;5087488;28;20020;-57
2022/05/21 09:41:22;;;;;;;10.07;2.80;;;;;;;17.09;100.00;165037.00;5085625;27;20040;-57
2022/05/21 09:46:43;;;;;;;13.02;3.65;;;;;;;16.85;100.00;164971.97;5084631;28;20534;-57
2022/05/21 09:49:11;;;;;;;10.50;2.97;;;;;;;17.00;100.00;165011.28;5083467;28;20047;-58
2022/05/21 09:51:36;;;;;;;13.60;3.72;;;;;;;17.44;100.00;165129.19;5084897;28;20036;-57
2022/05/21 09:54:18;;;;;;;14.13;4.15;;;;;;;18.02;100.00;165281.06;5087283;28;20039;-57
2022/05/21 09:56:52;;;;;;;11.43;3.00;;;;;;;17.58;100.00;165164.44;5084569;28;20237;-57
2022/05/21 09:59:22;;;;;;;8.85;3.13;;;;;;;17.59;100.00;165167.16;5087091;28;20028;-57
2022/05/21 10:01:53;;;;;;;10.77;3.15;;;;;;;17.75;100.00;165210.53;5077614;28;20120;-57
2022/05/21 10:04:46;;;;;;;7.18;2.42;;;;;;;17.50;100.00;165144.06;5077578;28;20025;-58
2022/05/21 10:13:07;;;;;;;10.35;3.63;;;;;;;17.35;100.00;165104.78;5078020;28;20507;-57
2022/05/21 10:15:39;;;;;;;15.02;4.13;;;;;;;17.83;100.00;165230.84;5084418;28;20035;-57
2022/05/21 10:18:34;;;;;;;12.90;2.67;;;;;;;17.49;100.00;165141.41;5086382;28;20035;-57
2022/05/21 10:21:12;;;;;;;16.90;4.82;;;;;;;18.18;100.00;165321.72;5085725;28;20036;-57
2022/05/21 10:23:49;;;;;;;13.82;3.78;;;;;;;18.16;100.00;165316.28;5086533;28;20044;-57
2022/05/21 10:27:04;;;;;;;15.88;3.17;;;;;;;17.86;100.00;165237.59;5085137;28;20043;-57
2022/05/21 10:30:02;;;;;;;15.77;4.65;;;;;;;17.92;100.00;165253.88;5044442;28;20057;-58
2022/05/21 10:32:52;;;;;;;12.68;3.40;;;;;;;17.85;100.00;165234.88;5042597;28;20154;-57
2022/05/21 10:35:45;;;;;;;9.70;3.95;;;;;;;17.55;100.00;165156.28;5079686;28;20102;-58
2022/05/21 10:38:48;;;;;;;8.07;3.63;;;;;;;17.65;100.00;165183.41;5071129;28;20127;-57
2022/05/21 10:41:41;;;;;;;13.05;3.55;;;;;;;17.67;100.00;165188.84;5071803;28;20089;-56
2022/05/21 10:44:31;;;;;;;11.25;3.83;;;;;;;17.95;100.00;165262.06;5073146;28;20115;-57
2022/05/21 10:47:16;;;;;;;16.60;4.30;;;;;;;18.11;100.00;165302.75;5070486;28;20044;-58
2022/05/21 10:50:05;;;;;;;13.35;3.40;;;;;;;18.13;100.00;165308.19;5073074;28;20436;-57
2022/05/21 10:52:53;;;;;;;8.95;3.13;;;;;;;18.21;100.00;165329.84;5071437;28;20040;-58
2022/05/21 10:55:44;;;;;;;11.25;3.80;;;;;;;18.67;100.00;165451.88;5072672;28;20487;-58
2022/05/21 10:58:27;;;;;;;14.20;4.43;;;;;;;19.03;100.00;165546.88;5071328;28;20098;-57
2022/05/21 11:01:14;;;;;;;13.63;4.38;;;;;;;19.47;100.00;165660.88;5072913;28;20024;-57
2022/05/21 11:03:58;;;;;;;17.77;3.80;;;;;;;19.06;100.00;165553.69;5070820;28;20056;-58
2022/05/21 11:06:44;;;;;;;7.07;2.92;;;;;;;18.34;100.00;165365.13;5059855;28;20059;-58
2022/05/21 11:09:29;;;;;;;12.23;3.60;;;;;;;17.96;100.00;165264.78;5052154;28;20047;-57
2022/05/21 11:12:03;;;;;;;10.50;2.53;;;;;;;18.00;100.00;165274.28;5058842;28;20600;-58
2022/05/21 11:14:49;;;;;;;10.25;3.33;;;;;;;18.15;100.00;165314.97;5072945;28;20032;-58
2022/05/21 11:17:49;;;;;;;13.57;3.67;;;;;;;18.78;100.00;165479.03;5070752;28;20438;-57
2022/05/21 11:20:24;;;;;;;9.88;2.92;;;;;;;18.80;100.00;165484.47;5071259;28;20418;-57
2022/05/21 11:22:57;;;;;;;19.48;3.20;;;;;;;19.39;100.00;165639.16;5070437;28;20047;-57
2022/05/21 11:25:33;;;;;;;4.45;1.58;;;;;;;18.79;100.00;165481.75;5072026;28;20045;-57
2022/05/21 11:28:34;;;;;;;8.00;3.95;;;;;;;18.56;100.00;165422.06;5070992;28;20044;-57
2022/05/21 11:31:07;;;;;;;8.18;2.70;;;;;;;18.24;100.00;165338.00;5070613;28;20060;-57
2022/05/21 11:39:11;;;;;;;;;;;;;;;18.17;100.00;165319.00;5072744;28;20395;-57
2022/05/21 11:42:07;;;;;;;9.70;4.72;;;;;;;18.22;100.00;165333.94;5070163;28;19916;-57
2022/05/21 11:44:59;;;;;;;9.57;2.80;;;;;;;18.36;100.00;165370.50;5072086;28;20082;-57
2022/05/21 11:47:54;;;;;;;13.65;3.60;;;;;;;18.79;100.00;165481.75;5068813;28;20048;-57
2022/05/21 11:50:26;;;;;;;11.02;3.33;;;;;;;19.27;100.00;165607.94;5070744;28;20035;-57
2022/05/21 11:52:55;;;;;;;8.95;3.17;;;;;;;19.48;100.00;165663.53;5071672;28;20555;-58
2022/05/21 11:55:30;;;;;;;16.10;3.20;;;;;;;18.95;100.00;165523.81;5069277;28;20167;-57